sensor_id;sensor_type;location;lat;lon;timestamp;temperature;humidity
44647;DHT22;56315;-33.902;151.160;2022-09-09T00:00:16;15.50;99.90
44647;DHT22;56315;-33.902;151.160;2022-09-09T00:06:14;15.60;99.90
44647;DHT22;56315;-33.902;151.160;2022-09-09T00:12:05;15.60;99.90
44647;DHT22;56315;-33.902;151.160;2022-09-09T00:14:51;15.50;99.90
44647;DHT22;56315;-33.902;151.160;2022-09-09T00:17:25;15.40;99.90
44647;DHT22;56315;-33.902;151.160;2022-09-09T00:20:05;15.50;99.90
44647;DHT22;56315;-33.902;151.160;2022-09-09T00:22:42;15.50;99.90
44647;DHT22;56315;-33.902;151.160;2022-09-09T00:25:16;15.50;99.90
44647;DHT22;56315;-33.902;151.160;2022-09-09T00:27:49;15.60;99.90
44647;DHT22;56315;-33.902;151.160;2022-09-09T00:30:25;15.70;99.90
44647;DHT22;56315;-33.902;151.160;2022-09-09T00:33:00;15.70;99.90
44647;DHT22;56315;-33.902;151.160;2022-09-09T00:38:02;15.90;99.90
44647;DHT22;56315;-33.902;151.160;2022-09-09T00:40:34;16.00;99.90
44647;DHT22;56315;-33.902;151.160;2022-09-09T00:43:37;16.10;99.90
44647;DHT22;56315;-33.902;151.160;2022-09-09T00:49:05;16.50;99.90
44647;DHT22;56315;-33.902;151.160;2022-09-09T00:59:56;16.70;99.90
44647;DHT22;56315;-33.902;151.160;2022-09-09T01:08:02;16.90;99.90
44647;DHT22;56315;-33.902;151.160;2022-09-09T01:10:36;16.90;99.90
44647;DHT22;56315;-33.902;151.160;2022-09-09T01:13:11;16.80;99.90
44647;DHT22;56315;-33.902;151.160;2022-09-09T01:15:42;16.90;99.90
44647;DHT22;56315;-33.902;151.160;2022-09-09T01:18:15;16.90;99.90
44647;DHT22;56315;-33.902;151.160;2022-09-09T01:26:37;17.70;99.90
44647;DHT22;56315;-33.902;151.160;2022-09-09T01:29:09;17.80;99.90
44647;DHT22;56315;-33.902;151.160;2022-09-09T01:31:51;18.10;99.90
44647;DHT22;56315;-33.902;151.160;2022-09-09T01:34:19;18.20;99.90
44647;DHT22;56315;-33.902;151.160;2022-09-09T01:39:21;18.40;99.90
44647;DHT22;56315;-33.902;151.160;2022-09-09T01:41:48;18.60;99.90
44647;DHT22;56315;-33.902;151.160;2022-09-09T01:44:16;18.60;99.90
44647;DHT22;56315;-33.902;151.160;2022-09-09T01:46:44;18.50;99.90
44647;DHT22;56315;-33.902;151.160;2022-09-09T01:49:12;18.50;99.90
44647;DHT22;56315;-33.902;151.160;2022-09-09T01:51:40;18.40;99.90
44647;DHT22;56315;-33.902;151.160;2022-09-09T01:54:08;18.30;99.90
44647;DHT22;56315;-33.902;151.160;2022-09-09T02:04:43;19.10;99.90
44647;DHT22;56315;-33.902;151.160;2022-09-09T02:11:11;19.90;99.90
44647;DHT22;56315;-33.902;151.160;2022-09-09T02:13:21;20.50;99.90
44647;DHT22;56315;-33.902;151.160;2022-09-09T02:16:03;21.10;99.90
44647;DHT22;56315;-33.902;151.160;2022-09-09T02:21:17;21.90;99.90
44647;DHT22;56315;-33.902;151.160;2022-09-09T02:23:47;22.40;99.90
44647;DHT22;56315;-33.902;151.160;2022-09-09T02:26:19;22.90;99.90
44647;DHT22;56315;-33.902;151.160;2022-09-09T02:28:50;23.10;99.90
44647;DHT22;56315;-33.902;151.160;2022-09-09T02:31:20;23.20;99.90
44647;DHT22;56315;-33.902;151.160;2022-09-09T02:33:52;23.30;99.90
44647;DHT22;56315;-33.902;151.160;2022-09-09T02:36:23;23.20;99.90
44647;DHT22;56315;-33.902;151.160;2022-09-09T02:38:52;23.00;99.90
44647;DHT22;56315;-33.902;151.160;2022-09-09T02:41:49;23.00;99.90
44647;DHT22;56315;-33.902;151.160;2022-09-09T02:44:17;22.90;99.90
44647;DHT22;56315;-33.902;151.160;2022-09-09T02:47:09;22.70;99.90
44647;DHT22;56315;-33.902;151.160;2022-09-09T02:52:26;22.50;99.90
44647;DHT22;56315;-33.902;151.160;2022-09-09T02:54:59;22.40;99.90
44647;DHT22;56315;-33.902;151.160;2022-09-09T02:57:32;22.40;99.90
44647;DHT22;56315;-33.902;151.160;2022-09-09T03:00:01;22.50;99.90
44647;DHT22;56315;-33.902;151.160;2022-09-09T03:02:29;22.50;99.90
44647;DHT22;56315;-33.902;151.160;2022-09-09T03:04:56;22.60;99.90
44647;DHT22;56315;-33.902;151.160;2022-09-09T03:07:24;22.50;99.90
44647;DHT22;56315;-33.902;151.160;2022-09-09T03:09:51;22.40;99.90
44647;DHT22;56315;-33.902;151.160;2022-09-09T03:12:21;22.40;99.90
44647;DHT22;56315;-33.902;151.160;2022-09-09T03:14:48;22.40;99.90
44647;DHT22;56315;-33.902;151.160;2022-09-09T03:17:16;22.50;99.90
44647;DHT22;56315;-33.902;151.160;2022-09-09T03:19:43;22.60;99.90
44647;DHT22;56315;-33.902;151.160;2022-09-09T03:22:11;22.60;99.90
44647;DHT22;56315;-33.902;151.160;2022-09-09T03:24:39;22.60;99.90
44647;DHT22;56315;-33.902;151.160;2022-09-09T03:27:07;22.60;99.90
44647;DHT22;56315;-33.902;151.160;2022-09-09T03:29:34;22.70;99.90
44647;DHT22;56315;-33.902;151.160;2022-09-09T03:32:02;22.60;99.90
44647;DHT22;56315;-33.902;151.160;2022-09-09T03:34:29;22.50;99.90
44647;DHT22;56315;-33.902;151.160;2022-09-09T03:36:57;22.50;99.90
44647;DHT22;56315;-33.902;151.160;2022-09-09T03:39:24;22.40;99.90
44647;DHT22;56315;-33.902;151.160;2022-09-09T03:41:52;22.40;99.90
44647;DHT22;56315;-33.902;151.160;2022-09-09T03:44:19;22.30;99.90
44647;DHT22;56315;-33.902;151.160;2022-09-09T03:46:46;22.20;99.90
44647;DHT22;56315;-33.902;151.160;2022-09-09T03:49:14;22.10;99.90
44647;DHT22;56315;-33.902;151.160;2022-09-09T03:51:42;22.00;99.90
44647;DHT22;56315;-33.902;151.160;2022-09-09T03:54:09;22.00;99.90
44647;DHT22;56315;-33.902;151.160;2022-09-09T03:56:37;22.00;99.90
44647;DHT22;56315;-33.902;151.160;2022-09-09T03:59:05;22.00;99.90
44647;DHT22;56315;-33.902;151.160;2022-09-09T04:01:32;21.90;99.90
44647;DHT22;56315;-33.902;151.160;2022-09-09T04:04:00;22.00;99.90
44647;DHT22;56315;-33.902;151.160;2022-09-09T04:06:29;21.90;99.90
44647;DHT22;56315;-33.902;151.160;2022-09-09T04:08:56;22.00;99.90
44647;DHT22;56315;-33.902;151.160;2022-09-09T04:11:23;21.80;99.90
44647;DHT22;56315;-33.902;151.160;2022-09-09T04:13:51;21.70;99.90
44647;DHT22;56315;-33.902;151.160;2022-09-09T04:16:18;21.60;99.90
44647;DHT22;56315;-33.902;151.160;2022-09-09T04:18:46;21.60;99.90
44647;DHT22;56315;-33.902;151.160;2022-09-09T04:21:15;21.60;99.90
44647;DHT22;56315;-33.902;151.160;2022-09-09T04:23:43;21.50;99.90
44647;DHT22;56315;-33.902;151.160;2022-09-09T04:26:10;21.50;99.90
44647;DHT22;56315;-33.902;151.160;2022-09-09T04:28:38;21.40;99.90
44647;DHT22;56315;-33.902;151.160;2022-09-09T04:31:12;21.30;99.90
44647;DHT22;56315;-33.902;151.160;2022-09-09T04:33:39;21.20;99.90
44647;DHT22;56315;-33.902;151.160;2022-09-09T04:36:07;21.30;99.90
44647;DHT22;56315;-33.902;151.160;2022-09-09T04:38:35;21.40;99.90
44647;DHT22;56315;-33.902;151.160;2022-09-09T04:41:02;21.50;99.90
44647;DHT22;56315;-33.902;151.160;2022-09-09T04:43:30;21.40;99.90
44647;DHT22;56315;-33.902;151.160;2022-09-09T04:45:57;21.40;99.90
44647;DHT22;56315;-33.902;151.160;2022-09-09T04:48:27;21.40;99.90
44647;DHT22;56315;-33.902;151.160;2022-09-09T04:51:08;21.40;99.90
44647;DHT22;56315;-33.902;151.160;2022-09-09T04:53:37;21.30;99.90
44647;DHT22;56315;-33.902;151.160;2022-09-09T04:56:05;21.30;99.90
44647;DHT22;56315;-33.902;151.160;2022-09-09T04:58:37;21.30;99.90
44647;DHT22;56315;-33.902;151.160;2022-09-09T05:01:12;21.20;99.90
44647;DHT22;56315;-33.902;151.160;2022-09-09T05:03:40;21.20;99.90
44647;DHT22;56315;-33.902;151.160;2022-09-09T05:06:13;21.10;99.90
44647;DHT22;56315;-33.902;151.160;2022-09-09T05:08:41;21.10;99.90
44647;DHT22;56315;-33.902;151.160;2022-09-09T05:11:30;21.10;99.90
44647;DHT22;56315;-33.902;151.160;2022-09-09T05:13:58;21.10;99.90
44647;DHT22;56315;-33.902;151.160;2022-09-09T05:16:26;21.10;99.90
44647;DHT22;56315;-33.902;151.160;2022-09-09T05:18:53;21.00;99.90
44647;DHT22;56315;-33.902;151.160;2022-09-09T05:21:22;20.90;99.90
44647;DHT22;56315;-33.902;151.160;2022-09-09T05:23:51;20.90;99.90
44647;DHT22;56315;-33.902;151.160;2022-09-09T05:26:20;20.90;99.90
44647;DHT22;56315;-33.902;151.160;2022-09-09T05:28:51;20.80;99.90
44647;DHT22;56315;-33.902;151.160;2022-09-09T05:31:20;20.70;99.90
44647;DHT22;56315;-33.902;151.160;2022-09-09T05:33:48;20.70;99.90
44647;DHT22;56315;-33.902;151.160;2022-09-09T05:36:20;20.60;99.90
44647;DHT22;56315;-33.902;151.160;2022-09-09T05:38:48;20.60;99.90
44647;DHT22;56315;-33.902;151.160;2022-09-09T05:41:17;20.50;99.90
44647;DHT22;56315;-33.902;151.160;2022-09-09T05:43:45;20.50;99.90
44647;DHT22;56315;-33.902;151.160;2022-09-09T05:46:20;20.50;99.90
44647;DHT22;56315;-33.902;151.160;2022-09-09T05:48:49;20.50;99.90
44647;DHT22;56315;-33.902;151.160;2022-09-09T05:51:22;20.30;99.90
44647;DHT22;56315;-33.902;151.160;2022-09-09T05:53:51;20.30;99.90
44647;DHT22;56315;-33.902;151.160;2022-09-09T05:56:21;20.20;99.90
44647;DHT22;56315;-33.902;151.160;2022-09-09T05:58:58;20.10;99.90
44647;DHT22;56315;-33.902;151.160;2022-09-09T06:01:28;20.20;99.90
44647;DHT22;56315;-33.902;151.160;2022-09-09T06:03:57;20.20;99.90
44647;DHT22;56315;-33.902;151.160;2022-09-09T06:06:27;20.00;99.90
44647;DHT22;56315;-33.902;151.160;2022-09-09T06:08:57;19.80;99.90
44647;DHT22;56315;-33.902;151.160;2022-09-09T06:11:27;19.60;99.90
44647;DHT22;56315;-33.902;151.160;2022-09-09T06:13:58;19.40;99.90
44647;DHT22;56315;-33.902;151.160;2022-09-09T06:16:27;19.20;99.90
44647;DHT22;56315;-33.902;151.160;2022-09-09T06:18:55;19.10;99.90
44647;DHT22;56315;-33.902;151.160;2022-09-09T06:21:29;19.10;99.90
44647;DHT22;56315;-33.902;151.160;2022-09-09T06:23:59;19.10;99.90
44647;DHT22;56315;-33.902;151.160;2022-09-09T06:26:35;19.10;99.90
44647;DHT22;56315;-33.902;151.160;2022-09-09T06:29:03;19.30;99.90
44647;DHT22;56315;-33.902;151.160;2022-09-09T06:31:34;19.40;99.90
44647;DHT22;56315;-33.902;151.160;2022-09-09T06:34:05;19.50;99.90
44647;DHT22;56315;-33.902;151.160;2022-09-09T06:36:34;19.50;99.90
44647;DHT22;56315;-33.902;151.160;2022-09-09T06:39:03;19.60;99.90
44647;DHT22;56315;-33.902;151.160;2022-09-09T06:41:32;19.60;99.90
44647;DHT22;56315;-33.902;151.160;2022-09-09T06:43:59;19.50;99.90
44647;DHT22;56315;-33.902;151.160;2022-09-09T06:46:29;19.40;99.90
44647;DHT22;56315;-33.902;151.160;2022-09-09T06:48:59;19.40;99.90
44647;DHT22;56315;-33.902;151.160;2022-09-09T06:51:35;19.30;99.90
44647;DHT22;56315;-33.902;151.160;2022-09-09T06:54:03;19.30;99.90
44647;DHT22;56315;-33.902;151.160;2022-09-09T06:56:35;19.20;99.90
44647;DHT22;56315;-33.902;151.160;2022-09-09T06:59:07;19.30;99.90
44647;DHT22;56315;-33.902;151.160;2022-09-09T07:01:37;19.30;99.90
44647;DHT22;56315;-33.902;151.160;2022-09-09T07:04:07;19.30;99.90
44647;DHT22;56315;-33.902;151.160;2022-09-09T07:06:40;19.20;99.90
44647;DHT22;56315;-33.902;151.160;2022-09-09T07:09:12;19.20;99.90
44647;DHT22;56315;-33.902;151.160;2022-09-09T07:11:42;19.10;99.90
44647;DHT22;56315;-33.902;151.160;2022-09-09T07:14:10;19.00;99.90
44647;DHT22;56315;-33.902;151.160;2022-09-09T07:16:42;18.90;99.90
44647;DHT22;56315;-33.902;151.160;2022-09-09T07:19:11;18.90;99.90
44647;DHT22;56315;-33.902;151.160;2022-09-09T07:21:39;18.70;99.90
44647;DHT22;56315;-33.902;151.160;2022-09-09T07:24:07;18.50;99.90
44647;DHT22;56315;-33.902;151.160;2022-09-09T07:26:37;18.40;99.90
44647;DHT22;56315;-33.902;151.160;2022-09-09T07:29:05;18.30;99.90
44647;DHT22;56315;-33.902;151.160;2022-09-09T07:31:34;18.20;99.90
44647;DHT22;56315;-33.902;151.160;2022-09-09T07:34:03;18.00;99.90
44647;DHT22;56315;-33.902;151.160;2022-09-09T07:36:32;18.00;99.90
44647;DHT22;56315;-33.902;151.160;2022-09-09T07:39:11;17.90;99.90
44647;DHT22;56315;-33.902;151.160;2022-09-09T07:41:48;17.70;99.90
44647;DHT22;56315;-33.902;151.160;2022-09-09T07:44:23;17.60;99.90
44647;DHT22;56315;-33.902;151.160;2022-09-09T07:46:53;17.50;99.90
44647;DHT22;56315;-33.902;151.160;2022-09-09T07:49:21;17.40;99.90
44647;DHT22;56315;-33.902;151.160;2022-09-09T07:51:49;17.30;99.90
44647;DHT22;56315;-33.902;151.160;2022-09-09T07:54:18;17.20;99.90
44647;DHT22;56315;-33.902;151.160;2022-09-09T07:56:50;17.10;99.90
44647;DHT22;56315;-33.902;151.160;2022-09-09T07:59:18;17.10;99.90
44647;DHT22;56315;-33.902;151.160;2022-09-09T08:01:49;17.00;99.90
44647;DHT22;56315;-33.902;151.160;2022-09-09T08:04:20;17.00;99.90
44647;DHT22;56315;-33.902;151.160;2022-09-09T08:06:54;17.00;99.90
44647;DHT22;56315;-33.902;151.160;2022-09-09T08:09:23;16.90;99.90
44647;DHT22;56315;-33.902;151.160;2022-09-09T08:11:56;16.90;99.90
44647;DHT22;56315;-33.902;151.160;2022-09-09T08:14:24;17.00;99.90
44647;DHT22;56315;-33.902;151.160;2022-09-09T08:16:52;17.10;99.90
44647;DHT22;56315;-33.902;151.160;2022-09-09T08:19:22;17.10;99.90
44647;DHT22;56315;-33.902;151.160;2022-09-09T08:21:50;17.10;99.90
44647;DHT22;56315;-33.902;151.160;2022-09-09T08:24:17;17.20;99.90
44647;DHT22;56315;-33.902;151.160;2022-09-09T08:26:47;17.20;99.90
44647;DHT22;56315;-33.902;151.160;2022-09-09T08:29:17;17.10;99.90
44647;DHT22;56315;-33.902;151.160;2022-09-09T08:31:48;17.10;99.90
44647;DHT22;56315;-33.902;151.160;2022-09-09T08:34:15;17.10;99.90
44647;DHT22;56315;-33.902;151.160;2022-09-09T08:36:45;17.10;99.90
44647;DHT22;56315;-33.902;151.160;2022-09-09T08:39:18;17.10;99.90
44647;DHT22;56315;-33.902;151.160;2022-09-09T08:44:44;16.90;99.90
44647;DHT22;56315;-33.902;151.160;2022-09-09T08:50:13;16.80;99.90
44647;DHT22;56315;-33.902;151.160;2022-09-09T08:55:41;16.70;99.90
44647;DHT22;56315;-33.902;151.160;2022-09-09T09:00:50;16.60;99.90
44647;DHT22;56315;-33.902;151.160;2022-09-09T09:11:18;16.40;99.90
44647;DHT22;56315;-33.902;151.160;2022-09-09T09:13:58;16.30;99.90
44647;DHT22;56315;-33.902;151.160;2022-09-09T09:17:00;16.30;99.90
44647;DHT22;56315;-33.902;151.160;2022-09-09T09:19:28;16.10;99.90
44647;DHT22;56315;-33.902;151.160;2022-09-09T09:22:02;16.10;99.90
44647;DHT22;56315;-33.902;151.160;2022-09-09T09:25:11;16.00;99.90
44647;DHT22;56315;-33.902;151.160;2022-09-09T09:30:42;16.10;99.90
44647;DHT22;56315;-33.902;151.160;2022-09-09T09:33:26;16.20;99.90
44647;DHT22;56315;-33.902;151.160;2022-09-09T09:35:55;16.20;99.90
44647;DHT22;56315;-33.902;151.160;2022-09-09T09:38:25;16.20;99.90
44647;DHT22;56315;-33.902;151.160;2022-09-09T09:40:58;16.20;99.90
44647;DHT22;56315;-33.902;151.160;2022-09-09T09:43:34;16.20;99.90
44647;DHT22;56315;-33.902;151.160;2022-09-09T09:46:05;16.20;99.90
44647;DHT22;56315;-33.902;151.160;2022-09-09T09:48:45;16.20;99.90
44647;DHT22;56315;-33.902;151.160;2022-09-09T09:51:22;16.20;99.90
44647;DHT22;56315;-33.902;151.160;2022-09-09T09:53:50;16.20;99.90
44647;DHT22;56315;-33.902;151.160;2022-09-09T09:56:27;16.10;99.90
44647;DHT22;56315;-33.902;151.160;2022-09-09T09:58:59;16.10;99.90
44647;DHT22;56315;-33.902;151.160;2022-09-09T10:01:31;16.10;99.90
44647;DHT22;56315;-33.902;151.160;2022-09-09T10:04:14;16.00;99.90
44647;DHT22;56315;-33.902;151.160;2022-09-09T10:06:42;16.00;99.90
44647;DHT22;56315;-33.902;151.160;2022-09-09T10:12:24;15.90;99.90
44647;DHT22;56315;-33.902;151.160;2022-09-09T10:29:18;15.80;99.90
44647;DHT22;56315;-33.902;151.160;2022-09-09T10:37:30;15.70;99.90
44647;DHT22;56315;-33.902;151.160;2022-09-09T10:40:33;15.70;99.90
44647;DHT22;56315;-33.902;151.160;2022-09-09T10:51:17;15.50;99.90
44647;DHT22;56315;-33.902;151.160;2022-09-09T10:54:11;15.50;99.90
44647;DHT22;56315;-33.902;151.160;2022-09-09T10:56:43;15.50;99.90
44647;DHT22;56315;-33.902;151.160;2022-09-09T10:59:30;15.50;99.90
44647;DHT22;56315;-33.902;151.160;2022-09-09T11:04:52;15.50;99.90
44647;DHT22;56315;-33.902;151.160;2022-09-09T11:08:13;15.50;99.90
44647;DHT22;56315;-33.902;151.160;2022-09-09T11:12:59;15.50;99.90
44647;DHT22;56315;-33.902;151.160;2022-09-09T11:15:50;15.50;99.90
44647;DHT22;56315;-33.902;151.160;2022-09-09T11:18:23;15.50;99.90
44647;DHT22;56315;-33.902;151.160;2022-09-09T11:21:00;15.60;99.90
44647;DHT22;56315;-33.902;151.160;2022-09-09T11:23:39;15.60;99.90
44647;DHT22;56315;-33.902;151.160;2022-09-09T11:26:16;15.60;99.90
44647;DHT22;56315;-33.902;151.160;2022-09-09T11:37:29;15.80;99.90
44647;DHT22;56315;-33.902;151.160;2022-09-09T11:40:23;15.80;99.90
44647;DHT22;56315;-33.902;151.160;2022-09-09T11:43:04;15.80;99.90
44647;DHT22;56315;-33.902;151.160;2022-09-09T11:45:34;15.80;99.90
44647;DHT22;56315;-33.902;151.160;2022-09-09T11:48:04;15.90;99.90
44647;DHT22;56315;-33.902;151.160;2022-09-09T11:50:37;15.90;99.90
44647;DHT22;56315;-33.902;151.160;2022-09-09T11:55:41;15.90;99.90
44647;DHT22;56315;-33.902;151.160;2022-09-09T12:08:45;15.90;99.90
44647;DHT22;56315;-33.902;151.160;2022-09-09T12:11:25;15.90;99.90
44647;DHT22;56315;-33.902;151.160;2022-09-09T12:13:54;15.80;99.90
44647;DHT22;56315;-33.902;151.160;2022-09-09T12:24:35;15.50;99.90
44647;DHT22;56315;-33.902;151.160;2022-09-09T12:27:18;15.50;99.90
44647;DHT22;56315;-33.902;151.160;2022-09-09T12:30:11;15.50;99.90
44647;DHT22;56315;-33.902;151.160;2022-09-09T12:32:37;15.50;99.90
44647;DHT22;56315;-33.902;151.160;2022-09-09T12:35:11;15.60;99.90
44647;DHT22;56315;-33.902;151.160;2022-09-09T12:37:50;15.60;99.90
44647;DHT22;56315;-33.902;151.160;2022-09-09T12:42:47;15.70;99.90
44647;DHT22;56315;-33.902;151.160;2022-09-09T12:45:20;15.80;99.90
44647;DHT22;56315;-33.902;151.160;2022-09-09T12:50:35;15.80;99.90
44647;DHT22;56315;-33.902;151.160;2022-09-09T12:53:22;15.90;99.90
44647;DHT22;56315;-33.902;151.160;2022-09-09T12:56:07;15.90;99.90
44647;DHT22;56315;-33.902;151.160;2022-09-09T12:58:37;15.90;99.90
44647;DHT22;56315;-33.902;151.160;2022-09-09T13:01:17;15.90;99.90
44647;DHT22;56315;-33.902;151.160;2022-09-09T13:03:45;15.90;99.90
44647;DHT22;56315;-33.902;151.160;2022-09-09T13:06:23;15.90;99.90
44647;DHT22;56315;-33.902;151.160;2022-09-09T13:08:54;15.90;99.90
44647;DHT22;56315;-33.902;151.160;2022-09-09T13:11:29;15.90;99.90
44647;DHT22;56315;-33.902;151.160;2022-09-09T13:13:59;15.90;99.90
44647;DHT22;56315;-33.902;151.160;2022-09-09T13:16:34;15.90;99.90
44647;DHT22;56315;-33.902;151.160;2022-09-09T13:19:08;15.90;99.90
44647;DHT22;56315;-33.902;151.160;2022-09-09T13:21:38;15.80;99.90
44647;DHT22;56315;-33.902;151.160;2022-09-09T13:24:21;15.90;99.90
44647;DHT22;56315;-33.902;151.160;2022-09-09T13:26:57;15.90;99.90
44647;DHT22;56315;-33.902;151.160;2022-09-09T13:29:24;15.90;99.90
44647;DHT22;56315;-33.902;151.160;2022-09-09T13:31:52;15.90;99.90
44647;DHT22;56315;-33.902;151.160;2022-09-09T13:34:31;15.90;99.90
44647;DHT22;56315;-33.902;151.160;2022-09-09T13:37:03;16.00;99.90
44647;DHT22;56315;-33.902;151.160;2022-09-09T13:39:34;16.00;99.90
44647;DHT22;56315;-33.902;151.160;2022-09-09T13:42:03;16.00;99.90
44647;DHT22;56315;-33.902;151.160;2022-09-09T13:44:39;16.00;99.90
44647;DHT22;56315;-33.902;151.160;2022-09-09T13:47:22;15.90;99.90
44647;DHT22;56315;-33.902;151.160;2022-09-09T13:49:53;16.00;99.90
44647;DHT22;56315;-33.902;151.160;2022-09-09T13:52:21;15.90;99.90
44647;DHT22;56315;-33.902;151.160;2022-09-09T13:54:52;15.90;99.90
44647;DHT22;56315;-33.902;151.160;2022-09-09T13:57:22;15.90;99.90
44647;DHT22;56315;-33.902;151.160;2022-09-09T13:59:51;15.80;99.90
44647;DHT22;56315;-33.902;151.160;2022-09-09T14:02:19;15.80;99.90
44647;DHT22;56315;-33.902;151.160;2022-09-09T14:04:47;15.80;99.90
44647;DHT22;56315;-33.902;151.160;2022-09-09T14:07:18;15.80;99.90
44647;DHT22;56315;-33.902;151.160;2022-09-09T14:09:45;15.70;99.90
44647;DHT22;56315;-33.902;151.160;2022-09-09T14:12:16;15.70;99.90
44647;DHT22;56315;-33.902;151.160;2022-09-09T14:14:44;15.70;99.90
44647;DHT22;56315;-33.902;151.160;2022-09-09T14:17:12;15.60;99.90
44647;DHT22;56315;-33.902;151.160;2022-09-09T14:19:40;15.60;99.90
44647;DHT22;56315;-33.902;151.160;2022-09-09T14:22:07;15.60;99.90
44647;DHT22;56315;-33.902;151.160;2022-09-09T14:24:34;15.50;99.90
44647;DHT22;56315;-33.902;151.160;2022-09-09T14:27:02;15.50;99.90
44647;DHT22;56315;-33.902;151.160;2022-09-09T14:29:29;15.50;99.90
44647;DHT22;56315;-33.902;151.160;2022-09-09T14:31:56;15.50;99.90
44647;DHT22;56315;-33.902;151.160;2022-09-09T14:34:24;15.40;99.90
44647;DHT22;56315;-33.902;151.160;2022-09-09T14:36:51;15.50;99.90
44647;DHT22;56315;-33.902;151.160;2022-09-09T14:39:19;15.40;99.90
44647;DHT22;56315;-33.902;151.160;2022-09-09T14:41:46;15.40;99.90
44647;DHT22;56315;-33.902;151.160;2022-09-09T14:44:13;15.50;99.90
44647;DHT22;56315;-33.902;151.160;2022-09-09T14:46:42;15.50;99.90
44647;DHT22;56315;-33.902;151.160;2022-09-09T14:49:09;15.50;99.90
44647;DHT22;56315;-33.902;151.160;2022-09-09T14:51:37;15.50;99.90
44647;DHT22;56315;-33.902;151.160;2022-09-09T14:54:04;15.50;99.90
44647;DHT22;56315;-33.902;151.160;2022-09-09T14:56:33;15.40;99.90
44647;DHT22;56315;-33.902;151.160;2022-09-09T14:59:04;15.40;99.90
44647;DHT22;56315;-33.902;151.160;2022-09-09T15:01:32;15.40;99.90
44647;DHT22;56315;-33.902;151.160;2022-09-09T15:04:03;15.40;99.90
44647;DHT22;56315;-33.902;151.160;2022-09-09T15:06:33;15.40;99.90
44647;DHT22;56315;-33.902;151.160;2022-09-09T15:09:01;15.40;99.90
44647;DHT22;56315;-33.902;151.160;2022-09-09T15:11:33;15.40;99.90
44647;DHT22;56315;-33.902;151.160;2022-09-09T15:14:05;15.40;99.90
44647;DHT22;56315;-33.902;151.160;2022-09-09T15:16:32;15.40;99.90
44647;DHT22;56315;-33.902;151.160;2022-09-09T15:19:02;15.40;99.90
44647;DHT22;56315;-33.902;151.160;2022-09-09T15:21:32;15.40;99.90
44647;DHT22;56315;-33.902;151.160;2022-09-09T15:24:00;15.40;99.90
44647;DHT22;56315;-33.902;151.160;2022-09-09T15:26:28;15.40;99.90
44647;DHT22;56315;-33.902;151.160;2022-09-09T15:28:56;15.30;99.90
44647;DHT22;56315;-33.902;151.160;2022-09-09T15:31:28;15.20;99.90
44647;DHT22;56315;-33.902;151.160;2022-09-09T15:34:01;15.10;99.90
44647;DHT22;56315;-33.902;151.160;2022-09-09T15:38:59;15.00;99.90
44647;DHT22;56315;-33.902;151.160;2022-09-09T15:41:28;14.90;99.90
44647;DHT22;56315;-33.902;151.160;2022-09-09T15:43:59;14.90;99.90
44647;DHT22;56315;-33.902;151.160;2022-09-09T15:46:31;14.80;99.90
44647;DHT22;56315;-33.902;151.160;2022-09-09T15:51:31;14.80;99.90
44647;DHT22;56315;-33.902;151.160;2022-09-09T15:53:59;14.80;99.90
44647;DHT22;56315;-33.902;151.160;2022-09-09T15:56:28;14.80;99.90
44647;DHT22;56315;-33.902;151.160;2022-09-09T15:58:59;14.80;99.90
44647;DHT22;56315;-33.902;151.160;2022-09-09T16:01:28;14.70;99.90
44647;DHT22;56315;-33.902;151.160;2022-09-09T16:03:57;14.70;99.90
44647;DHT22;56315;-33.902;151.160;2022-09-09T16:06:26;14.60;99.90
44647;DHT22;56315;-33.902;151.160;2022-09-09T16:08:55;14.50;99.90
44647;DHT22;56315;-33.902;151.160;2022-09-09T16:11:29;14.40;99.90
44647;DHT22;56315;-33.902;151.160;2022-09-09T16:13:57;14.40;99.90
44647;DHT22;56315;-33.902;151.160;2022-09-09T16:16:28;14.40;99.90
44647;DHT22;56315;-33.902;151.160;2022-09-09T16:18:58;14.30;99.90
44647;DHT22;56315;-33.902;151.160;2022-09-09T16:21:31;14.30;99.90
44647;DHT22;56315;-33.902;151.160;2022-09-09T16:24:00;14.30;99.90
44647;DHT22;56315;-33.902;151.160;2022-09-09T16:26:30;14.30;99.90
44647;DHT22;56315;-33.902;151.160;2022-09-09T16:28:58;14.20;99.90
44647;DHT22;56315;-33.902;151.160;2022-09-09T16:31:27;14.20;99.90
44647;DHT22;56315;-33.902;151.160;2022-09-09T16:33:55;14.20;99.90
44647;DHT22;56315;-33.902;151.160;2022-09-09T16:36:24;14.20;99.90
44647;DHT22;56315;-33.902;151.160;2022-09-09T16:38:59;14.20;99.90
44647;DHT22;56315;-33.902;151.160;2022-09-09T16:41:28;14.20;99.90
44647;DHT22;56315;-33.902;151.160;2022-09-09T16:43:58;14.30;99.90
44647;DHT22;56315;-33.902;151.160;2022-09-09T16:46:27;14.30;99.90
44647;DHT22;56315;-33.902;151.160;2022-09-09T16:48:57;14.30;99.90
44647;DHT22;56315;-33.902;151.160;2022-09-09T16:51:30;14.30;99.90
44647;DHT22;56315;-33.902;151.160;2022-09-09T16:54:03;14.30;99.90
44647;DHT22;56315;-33.902;151.160;2022-09-09T16:56:33;14.30;99.90
44647;DHT22;56315;-33.902;151.160;2022-09-09T16:59:02;14.40;99.90
44647;DHT22;56315;-33.902;151.160;2022-09-09T17:01:32;14.40;99.90
44647;DHT22;56315;-33.902;151.160;2022-09-09T17:04:03;14.50;99.90
44647;DHT22;56315;-33.902;151.160;2022-09-09T17:06:33;14.60;99.90
44647;DHT22;56315;-33.902;151.160;2022-09-09T17:09:09;14.60;99.90
44647;DHT22;56315;-33.902;151.160;2022-09-09T17:11:38;14.60;99.90
44647;DHT22;56315;-33.902;151.160;2022-09-09T17:14:07;14.50;99.90
44647;DHT22;56315;-33.902;151.160;2022-09-09T17:16:35;14.50;99.90
44647;DHT22;56315;-33.902;151.160;2022-09-09T17:19:04;14.50;99.90
44647;DHT22;56315;-33.902;151.160;2022-09-09T17:21:32;14.50;99.90
44647;DHT22;56315;-33.902;151.160;2022-09-09T17:23:59;14.50;99.90
44647;DHT22;56315;-33.902;151.160;2022-09-09T17:26:29;14.50;99.90
44647;DHT22;56315;-33.902;151.160;2022-09-09T17:28:57;14.50;99.90
44647;DHT22;56315;-33.902;151.160;2022-09-09T17:31:27;14.60;99.90
44647;DHT22;56315;-33.902;151.160;2022-09-09T17:33:55;14.50;99.90
44647;DHT22;56315;-33.902;151.160;2022-09-09T17:36:29;14.50;99.90
44647;DHT22;56315;-33.902;151.160;2022-09-09T17:38:57;14.50;99.90
44647;DHT22;56315;-33.902;151.160;2022-09-09T17:41:31;14.40;99.90
44647;DHT22;56315;-33.902;151.160;2022-09-09T17:43:59;14.40;99.90